This is the latest recevied weather packets stored in our database for station/object KG5WBN. If no packets are shown the sender has not sent any weather packets the latest 10 day(s).
| Time | Temp. | Humidity | Pressure | Rain* | Wind** | Luminosity | Snow |
|---|---|---|---|---|---|---|---|
| 1778093846 | 30.56° C | 45% | 1012.5 hPa | 0 mm | - | 201 W/m² | - |
| 1778093542 | 30.56° C | 46% | 1012.5 hPa | 0 mm | - | 216 W/m² | - |
| 1778093240 | 30° C | 48% | 1012.9 hPa | 0 mm | - | 200 W/m² | - |
| 1778092937 | 30° C | 48% | 1012.9 hPa | 0 mm | - | 207 W/m² | - |
| 1778092633 | 30° C | 50% | 1012.9 hPa | 0 mm | - | 173 W/m² | - |
| 1778092329 | 30° C | 49% | 1013.2 hPa | 0 mm | - | 153 W/m² | - |
| 1778092027 | 30° C | 49% | 1012.9 hPa | 0 mm | - | 153 W/m² | - |
| 1778091723 | 30.56° C | 50% | 1012.9 hPa | 0 mm | - | 126 W/m² | - |
| 1778091421 | 30.56° C | 47% | 1012.9 hPa | 0 mm | - | 185 W/m² | - |
| 1778091118 | 31.11° C | 45% | 1012.9 hPa | 0 mm | - | 261 W/m² | - |
| 1778090815 | 31.11° C | 46% | 1012.9 hPa | 0 mm | - | 221 W/m² | - |
| 1778090511 | 30.56° C | 50% | 1012.9 hPa | 0 mm | - | 424 W/m² | - |
| 1778090208 | 30° C | 49% | 1013.2 hPa | 0 mm | - | 189 W/m² | - |
| 1778089905 | 30° C | 51% | 1013.2 hPa | 0 mm | - | 207 W/m² | - |
| 1778089598 | 30° C | 50% | 1013.2 hPa | 0 mm | - | 237 W/m² | - |
| 1778089294 | 30.56° C | 50% | 1013.2 hPa | 0 mm | - | 231 W/m² | - |
| 1778088992 | 30° C | 54% | 1013.2 hPa | 0 mm | - | 340 W/m² | - |
| 1778088688 | 29.44° C | 58% | 1013.2 hPa | 0 mm | - | 228 W/m² | - |
| 1778088385 | 28.89° C | 60% | 1013.5 hPa | 0 mm | - | 199 W/m² | - |
| 1778088081 | 28.89° C | 58% | 1013.5 hPa | 0 mm | - | 210 W/m² | - |
| 1778087779 | 28.89° C | 61% | 1013.5 hPa | 0 mm | - | 213 W/m² | - |
| 1778087476 | 28.33° C | 65% | 1013.2 hPa | 0 mm | - | 192 W/m² | - |
| 1778087168 | 27.78° C | 64% | 1013.5 hPa | 0 mm | - | 162 W/m² | - |
| 1778086865 | 27.78° C | 64% | 1013.5 hPa | 0 mm | - | 80 W/m² | - |
| 1778086564 | 28.33° C | 63% | 1013.5 hPa | 0 mm | - | 115 W/m² | - |
* Rain latest hour (hover to see other rain measurements)
** Current wind speed in m/s (hover to see current wind gust speed)